createdAt,value
2023-02-16T00:01:17.699Z,99459.81
2023-02-16T00:03:44.510Z,99451.91
2023-02-16T00:06:15.844Z,99449.13
2023-02-16T00:08:51.721Z,99441.81
2023-02-16T00:11:51.005Z,99446.03
2023-02-16T00:14:19.026Z,99453.13
2023-02-16T00:16:45.686Z,99440.06
2023-02-16T00:19:27.461Z,99439.25
2023-02-16T00:21:56.756Z,99436.66
2023-02-16T00:24:24.510Z,99440.13
2023-02-16T00:26:51.176Z,99433.16
2023-02-16T00:29:23.484Z,99442.06
2023-02-16T00:31:50.833Z,99446.50
2023-02-16T00:34:31.456Z,99438.69
2023-02-16T00:37:02.683Z,99437.59
2023-02-16T00:39:30.203Z,99444.53
2023-02-16T00:42:02.875Z,99439.41
2023-02-16T00:44:51.706Z,99434.16
2023-02-16T00:47:31.827Z,99435.91
2023-02-16T00:49:58.722Z,99433.28
2023-02-16T00:52:39.757Z,99434.22
2023-02-16T00:55:12.805Z,99431.59
2023-02-16T00:57:53.744Z,99427.28
2023-02-16T01:00:30.023Z,99430.84
2023-02-16T01:03:01.895Z,99437.78
2023-02-16T01:05:29.017Z,99435.06
2023-02-16T01:08:17.758Z,99438.38
2023-02-16T01:11:03.262Z,99430.41
2023-02-16T01:13:32.832Z,99433.00
2023-02-16T01:15:59.604Z,99435.66
2023-02-16T01:18:29.200Z,99434.72
2023-02-16T01:20:55.868Z,99431.19
2023-02-16T01:23:22.515Z,99440.84
2023-02-16T01:25:49.247Z,99432.16
2023-02-16T01:28:22.104Z,99433.09
2023-02-16T01:30:49.472Z,99427.75
2023-02-16T01:33:16.311Z,99428.56
2023-02-16T01:35:43.753Z,99426.78
2023-02-16T01:38:26.202Z,99433.75
2023-02-16T01:41:05.904Z,99428.56
2023-02-16T01:43:46.563Z,99425.09
2023-02-16T01:46:33.184Z,99420.69
2023-02-16T01:48:59.973Z,99426.78
2023-02-16T01:51:34.316Z,99428.47
2023-02-16T01:54:17.981Z,99429.97
2023-02-16T01:57:05.099Z,99422.81
2023-02-16T01:59:49.836Z,99415.69
2023-02-16T02:02:25.918Z,99421.81
2023-02-16T02:05:21.445Z,99416.63
2023-02-16T02:08:06.452Z,99416.75
2023-02-16T02:10:54.539Z,99412.50
2023-02-16T02:13:41.687Z,99409.13
2023-02-16T02:16:10.369Z,99399.56
2023-02-16T02:18:37.497Z,99403.06
2023-02-16T02:21:29.736Z,99405.69
2023-02-16T02:24:08.551Z,99405.56
2023-02-16T02:27:07.281Z,99399.22
2023-02-16T02:30:06.329Z,99406.09
2023-02-16T02:32:44.686Z,99393.09
2023-02-16T02:35:29.812Z,99395.72
2023-02-16T02:38:14.221Z,99400.09
2023-02-16T02:41:04.611Z,99388.63
2023-02-16T02:43:43.226Z,99396.44
2023-02-16T02:46:09.815Z,99393.75
2023-02-16T02:48:36.579Z,99404.00
2023-02-16T02:51:30.792Z,99402.13
2023-02-16T02:54:35.071Z,99396.84
2023-02-16T02:57:45.724Z,99393.34
2023-02-16T03:00:40.736Z,99392.31
2023-02-16T03:03:22.766Z,99387.81
2023-02-16T03:06:17.657Z,99393.91
2023-02-16T03:08:48.212Z,99391.31
2023-02-16T03:11:41.428Z,99386.94
2023-02-16T03:14:16.549Z,99386.97
2023-02-16T03:17:16.437Z,99385.38
2023-02-16T03:20:04.346Z,99395.97
2023-02-16T03:22:51.119Z,99383.75
2023-02-16T03:25:36.908Z,99387.22
2023-02-16T03:28:27.360Z,99383.66
2023-02-16T03:30:55.763Z,99391.47
2023-02-16T03:33:23.850Z,99386.97
2023-02-16T03:35:51.295Z,99385.19
2023-02-16T03:38:18.377Z,99384.31
2023-02-16T03:40:47.992Z,99379.03
2023-02-16T03:43:14.622Z,99380.47
2023-02-16T03:45:43.314Z,99390.09
2023-02-16T03:48:10.287Z,99382.13
2023-02-16T03:50:37.291Z,99382.72
2023-02-16T03:53:07.193Z,99383.44
2023-02-16T03:55:34.001Z,99387.84
2023-02-16T03:58:01.513Z,99379.16
2023-02-16T04:00:28.613Z,99383.41
2023-02-16T04:02:55.314Z,99379.03
2023-02-16T04:05:21.975Z,99373.81
2023-02-16T04:07:48.623Z,99378.22
2023-02-16T04:10:15.679Z,99384.38
2023-02-16T04:12:42.299Z,99381.81
2023-02-16T04:15:15.249Z,99383.53
2023-02-16T04:17:41.976Z,99383.53
2023-02-16T04:20:11.435Z,99379.19
2023-02-16T04:22:38.243Z,99381.81
2023-02-16T04:25:05.619Z,99375.59
2023-02-16T04:27:32.302Z,99381.72
2023-02-16T04:29:59.012Z,99372.81
2023-02-16T04:32:25.698Z,99380.78
2023-02-16T04:34:52.375Z,99386.94
2023-02-16T04:37:19.075Z,99386.94
2023-02-16T04:39:45.723Z,99392.91
2023-02-16T04:42:12.487Z,99388.50
2023-02-16T04:44:39.134Z,99379.31
2023-02-16T04:47:05.782Z,99391.38
2023-02-16T04:49:32.445Z,99395.63
2023-02-16T04:52:00.887Z,99390.13
2023-02-16T04:54:27.905Z,99380.38
2023-02-16T04:56:54.681Z,99386.44
2023-02-16T04:59:21.733Z,99379.59
2023-02-16T05:01:49.089Z,99389.47
2023-02-16T05:04:16.511Z,99388.78
2023-02-16T05:06:43.452Z,99390.34
2023-02-16T05:09:10.490Z,99396.41
2023-02-16T05:11:55.778Z,99387.63
2023-02-16T05:14:45.444Z,99388.47
2023-02-16T05:17:24.017Z,99378.00
2023-02-16T05:19:53.481Z,99390.06
2023-02-16T05:22:20.795Z,99396.19
2023-02-16T05:24:48.169Z,99386.50
2023-02-16T05:27:18.858Z,99395.28
2023-02-16T05:29:46.104Z,99393.41
2023-02-16T05:32:13.216Z,99396.81
2023-02-16T05:34:40.113Z,99391.53
2023-02-16T05:37:06.969Z,99393.34
2023-02-16T05:39:34.606Z,99391.59
2023-02-16T05:42:01.349Z,99393.34
2023-02-16T05:44:28.222Z,99386.47
2023-02-16T05:46:54.826Z,99389.84
2023-02-16T05:49:21.525Z,99397.53
2023-02-16T05:51:48.191Z,99393.00
2023-02-16T05:54:18.050Z,99392.63
2023-02-16T05:56:49.406Z,99397.69
2023-02-16T05:59:16.881Z,99392.34
2023-02-16T06:01:44.510Z,99399.38
2023-02-16T06:04:14.624Z,99407.16
2023-02-16T06:06:41.529Z,99409.81
2023-02-16T06:09:09.134Z,99412.38
2023-02-16T06:11:36.625Z,99410.75
2023-02-16T06:14:07.457Z,99411.66
2023-02-16T06:16:35.334Z,99405.53
2023-02-16T06:19:02.172Z,99399.41
2023-02-16T06:21:29.067Z,99410.75
2023-02-16T06:23:55.753Z,99415.75
2023-02-16T06:26:23.045Z,99416.75
2023-02-16T06:28:49.877Z,99424.53
2023-02-16T06:31:16.656Z,99424.63
2023-02-16T06:33:43.580Z,99427.16
2023-02-16T06:36:10.810Z,99428.84
2023-02-16T06:38:37.702Z,99439.16
2023-02-16T06:41:04.839Z,99432.84
2023-02-16T06:43:31.902Z,99438.94
2023-02-16T06:45:58.796Z,99440.78
2023-02-16T06:48:25.481Z,99437.38
2023-02-16T06:50:52.456Z,99440.88
2023-02-16T06:53:20.452Z,99442.59
2023-02-16T06:55:49.589Z,99448.53
2023-02-16T06:58:16.188Z,99438.81
2023-02-16T07:00:42.822Z,99438.66
2023-02-16T07:03:09.602Z,99457.06
2023-02-16T07:05:36.325Z,99459.75
2023-02-16T07:08:03.088Z,99459.06
2023-02-16T07:10:43.695Z,99461.84
2023-02-16T07:13:15.973Z,99457.69
2023-02-16T07:15:42.776Z,99441.88
2023-02-16T07:18:09.515Z,99442.44
2023-02-16T07:20:36.306Z,99444.38
2023-02-16T07:23:02.934Z,99439.34
2023-02-16T07:25:29.696Z,99438.75
2023-02-16T07:27:56.358Z,99441.81
2023-02-16T07:30:23.050Z,99437.84
2023-02-16T07:32:49.759Z,99436.50
2023-02-16T07:35:16.345Z,99436.91
2023-02-16T07:37:42.973Z,99430.25
2023-02-16T07:40:10.916Z,99431.69
2023-02-16T07:42:37.677Z,99438.63
2023-02-16T07:45:04.888Z,99430.72
2023-02-16T07:47:31.664Z,99413.88
2023-02-16T07:49:58.262Z,99418.81
2023-02-16T07:52:30.803Z,99420.06
2023-02-16T07:54:58.975Z,99409.72
2023-02-16T07:57:26.828Z,99410.72
2023-02-16T07:59:54.502Z,99402.78
2023-02-16T08:02:22.434Z,99404.47
2023-02-16T08:04:49.582Z,99384.84
2023-02-16T08:07:17.294Z,99380.38
2023-02-16T08:09:44.454Z,99386.47
2023-02-16T08:12:15.783Z,99388.03
2023-02-16T08:14:43.408Z,99387.59
2023-02-16T08:17:10.569Z,99392.91
2023-02-16T08:19:37.325Z,99396.16
2023-02-16T08:22:05.283Z,99393.28
2023-02-16T08:24:33.918Z,99387.50
2023-02-16T08:27:03.540Z,99393.41
2023-02-16T08:29:31.084Z,99392.66
2023-02-16T08:31:57.904Z,99395.91
2023-02-16T08:34:25.208Z,99401.28
2023-02-16T08:36:56.962Z,99398.19
2023-02-16T08:39:26.827Z,99390.63
2023-02-16T08:41:54.485Z,99387.38
2023-02-16T08:44:23.609Z,99389.53
2023-02-16T08:46:52.180Z,99385.53
2023-02-16T08:49:21.889Z,99375.25
2023-02-16T08:51:57.519Z,99374.50
2023-02-16T08:54:30.364Z,99382.50
2023-02-16T08:56:59.019Z,99378.94
2023-02-16T08:59:28.406Z,99367.31
2023-02-16T09:01:55.540Z,99374.63
2023-02-16T09:04:22.553Z,99368.50
2023-02-16T09:06:49.193Z,99376.69
2023-02-16T09:09:16.668Z,99377.25
2023-02-16T09:11:43.362Z,99377.59
2023-02-16T09:14:10.497Z,99381.47
2023-02-16T09:16:39.773Z,99374.16
2023-02-16T09:19:07.205Z,99374.75
2023-02-16T09:21:34.287Z,99374.50
2023-02-16T09:24:03.439Z,99362.00
2023-02-16T09:26:38.914Z,99357.59
2023-02-16T09:29:07.026Z,99349.13
2023-02-16T09:31:37.246Z,99345.81
2023-02-16T09:34:07.853Z,99347.69
2023-02-16T09:36:35.069Z,99348.72
2023-02-16T09:39:02.322Z,99351.28
2023-02-16T09:41:57.696Z,99382.63
2023-02-16T09:44:33.346Z,99385.91
2023-02-16T09:47:04.857Z,99386.25
2023-02-16T09:49:36.000Z,99397.38
2023-02-16T09:52:09.057Z,99398.97
2023-02-16T09:54:51.583Z,99403.81
2023-02-16T09:57:59.117Z,99404.28
2023-02-16T10:00:35.861Z,99402.19
2023-02-16T10:03:28.875Z,99398.53
2023-02-16T10:06:19.019Z,99405.84
2023-02-16T10:08:54.415Z,99415.22
2023-02-16T10:11:46.417Z,99420.78
2023-02-16T10:14:58.478Z,99417.88
2023-02-16T10:17:34.456Z,99430.91
2023-02-16T10:20:16.503Z,99425.00
2023-02-16T10:22:52.586Z,99432.78
2023-02-16T10:25:34.301Z,99423.13
2023-02-16T10:28:16.392Z,99426.75
2023-02-16T10:30:50.556Z,99422.56
2023-02-16T10:33:33.877Z,99421.91
2023-02-16T10:36:07.113Z,99414.78
2023-02-16T10:38:51.366Z,99410.97
2023-02-16T10:41:31.488Z,99410.84
2023-02-16T10:44:11.292Z,99404.75
2023-02-16T10:46:56.773Z,99396.06
2023-02-16T10:49:25.743Z,99395.50
2023-02-16T10:51:55.344Z,99389.03
2023-02-16T10:54:27.253Z,99394.25
2023-02-16T10:56:59.592Z,99391.69
2023-02-16T10:59:42.473Z,99403.34
2023-02-16T11:02:30.846Z,99402.69
2023-02-16T11:04:58.852Z,99405.50
2023-02-16T11:07:28.269Z,99395.59
2023-02-16T11:09:57.191Z,99397.75
2023-02-16T11:12:38.355Z,99401.09
2023-02-16T11:15:08.358Z,99400.50
2023-02-16T11:17:53.056Z,99403.66
2023-02-16T11:20:31.822Z,99395.63
2023-02-16T11:23:23.078Z,99379.03
2023-02-16T11:26:13.010Z,99368.94
2023-02-16T11:28:42.022Z,99371.31
2023-02-16T11:31:32.144Z,99384.16
2023-02-16T11:34:06.414Z,99371.13
2023-02-16T11:36:40.408Z,99383.16
2023-02-16T11:39:24.081Z,99371.59
2023-02-16T11:41:56.157Z,99353.28
2023-02-16T11:44:27.853Z,99357.66
2023-02-16T11:46:57.174Z,99339.44
2023-02-16T11:49:37.315Z,99342.06
2023-02-16T11:52:23.134Z,99332.06
2023-02-16T11:54:51.852Z,99333.03
2023-02-16T11:57:29.633Z,99337.81
2023-02-16T11:59:57.480Z,99330.72
2023-02-16T12:02:46.382Z,99341.97
2023-02-16T12:05:35.579Z,99352.63
2023-02-16T12:08:27.784Z,99349.16
2023-02-16T12:11:12.401Z,99342.25
2023-02-16T12:13:51.052Z,99341.81
2023-02-16T12:16:36.992Z,99331.41
2023-02-16T12:19:22.050Z,99332.53
2023-02-16T12:22:01.101Z,99324.03
2023-02-16T12:24:49.388Z,99317.59
2023-02-16T12:27:21.995Z,99323.72
2023-02-16T12:30:13.103Z,99322.34
2023-02-16T12:32:50.307Z,99322.50
2023-02-16T12:35:22.702Z,99320.13
2023-02-16T12:38:13.435Z,99320.00
2023-02-16T12:41:09.327Z,99335.06
2023-02-16T12:43:44.811Z,99327.94
2023-02-16T12:46:17.548Z,99324.47
2023-02-16T12:48:47.917Z,99323.16
2023-02-16T12:51:22.904Z,99312.47
2023-02-16T12:54:01.563Z,99313.03
2023-02-16T12:56:38.851Z,99306.13
2023-02-16T12:59:26.018Z,99293.16
2023-02-16T13:01:56.223Z,99300.63
2023-02-16T13:04:48.818Z,99304.25
2023-02-16T13:07:38.729Z,99299.47
2023-02-16T13:10:22.645Z,99300.94
2023-02-16T13:13:04.641Z,99298.13
2023-02-16T13:15:38.907Z,99286.31
2023-02-16T13:18:18.623Z,99284.69
2023-02-16T13:21:08.133Z,99275.19
2023-02-16T13:24:11.306Z,99256.56
2023-02-16T13:26:55.694Z,99275.31
2023-02-16T13:29:31.362Z,99277.38
2023-02-16T13:32:37.739Z,99290.31
2023-02-16T13:35:20.022Z,99293.69
2023-02-16T13:38:05.120Z,99292.84
2023-02-16T13:40:59.731Z,99290.16
2023-02-16T13:43:52.080Z,99288.13
2023-02-16T13:46:28.985Z,99294.72
2023-02-16T13:48:56.113Z,99296.78
2023-02-16T13:51:26.281Z,99291.06
2023-02-16T13:53:59.147Z,99294.75
2023-02-16T13:56:28.652Z,99289.78
2023-02-16T13:58:58.060Z,99287.94
2023-02-16T14:01:44.128Z,99281.25
2023-02-16T14:04:27.567Z,99284.38
2023-02-16T14:07:03.403Z,99284.91
2023-02-16T14:09:37.089Z,99287.50
2023-02-16T14:12:16.804Z,99277.91
2023-02-16T14:14:43.417Z,99295.94
2023-02-16T14:17:19.231Z,99290.75
2023-02-16T14:19:55.186Z,99283.41
2023-02-16T14:22:50.791Z,99296.00
2023-02-16T14:25:23.397Z,99299.03
2023-02-16T14:27:50.575Z,99288.91
2023-02-16T14:30:51.760Z,99299.72
2023-02-16T14:33:38.852Z,99299.53
2023-02-16T14:36:14.016Z,99289.94
2023-02-16T14:38:40.669Z,99279.06
2023-02-16T14:41:23.850Z,99277.31
2023-02-16T14:43:56.450Z,99276.72
2023-02-16T14:46:58.811Z,99276.66
2023-02-16T14:49:33.575Z,99278.75
2023-02-16T14:52:09.027Z,99277.75
2023-02-16T14:55:13.644Z,99279.38
2023-02-16T14:57:48.484Z,99281.75
2023-02-16T15:00:24.748Z,99281.22
2023-02-16T15:02:58.985Z,99285.63
2023-02-16T15:05:29.916Z,99288.44
2023-02-16T15:08:24.012Z,99287.56
2023-02-16T15:10:56.209Z,99291.34
2023-02-16T15:13:30.842Z,99284.06
2023-02-16T15:16:00.319Z,99277.59
2023-02-16T15:18:40.297Z,99285.84
2023-02-16T15:21:17.037Z,99279.44
2023-02-16T15:23:52.544Z,99270.06
2023-02-16T15:26:26.314Z,99275.22
2023-02-16T15:29:16.535Z,99284.06
2023-02-16T15:31:44.071Z,99280.91
2023-02-16T15:34:26.324Z,99272.72
2023-02-16T15:36:53.008Z,99279.78
2023-02-16T15:39:37.902Z,99273.53
2023-02-16T15:42:18.836Z,99263.84
2023-02-16T15:44:48.020Z,99262.97
2023-02-16T15:47:22.404Z,99262.28
2023-02-16T15:49:49.892Z,99256.22
2023-02-16T15:52:27.490Z,99260.59
2023-02-16T15:54:55.199Z,99265.84
2023-02-16T15:57:30.990Z,99264.03
2023-02-16T16:00:00.567Z,99263.06
2023-02-16T16:02:38.318Z,99262.38
2023-02-16T16:05:09.664Z,99258.78
2023-02-16T16:07:40.047Z,99257.88
2023-02-16T16:10:25.019Z,99254.34
2023-02-16T16:12:56.472Z,99251.75
2023-02-16T16:15:26.264Z,99251.84
2023-02-16T16:17:54.904Z,99256.25
2023-02-16T16:20:27.705Z,99258.19
2023-02-16T16:23:14.073Z,99259.91
2023-02-16T16:25:46.505Z,99255.50
2023-02-16T16:28:36.563Z,99255.56
2023-02-16T16:31:11.942Z,99252.91
2023-02-16T16:33:54.961Z,99250.25
2023-02-16T16:36:32.123Z,99251.19
2023-02-16T16:39:17.072Z,99253.03
2023-02-16T16:42:16.082Z,99250.34
2023-02-16T16:44:56.468Z,99261.03
2023-02-16T16:47:29.396Z,99257.03
2023-02-16T16:49:58.225Z,99254.28
2023-02-16T16:52:32.235Z,99257.06
2023-02-16T16:54:59.062Z,99255.22
2023-02-16T16:57:25.961Z,99249.91
2023-02-16T16:59:52.623Z,99252.50
2023-02-16T17:02:19.381Z,99264.06
2023-02-16T17:04:45.983Z,99266.78
2023-02-16T17:07:12.715Z,99258.88
2023-02-16T17:09:39.368Z,99260.72
2023-02-16T17:12:06.416Z,99258.09
2023-02-16T17:14:34.048Z,99264.41
2023-02-16T17:17:00.798Z,99258.22
2023-02-16T17:19:29.340Z,99257.41
2023-02-16T17:21:56.089Z,99267.19
2023-02-16T17:24:23.199Z,99258.41
2023-02-16T17:26:50.215Z,99256.75
2023-02-16T17:29:16.977Z,99252.31
2023-02-16T17:31:43.779Z,99251.56
2023-02-16T17:34:10.496Z,99253.31
2023-02-16T17:36:37.384Z,99258.00
2023-02-16T17:39:04.384Z,99249.19
2023-02-16T17:41:31.037Z,99250.13
2023-02-16T17:43:57.735Z,99254.53
2023-02-16T17:46:25.475Z,99255.44
2023-02-16T17:48:55.112Z,99259.19
2023-02-16T17:51:24.198Z,99266.31
2023-02-16T17:53:51.661Z,99266.31
2023-02-16T17:56:21.563Z,99270.72
2023-02-16T17:58:48.910Z,99267.28
2023-02-16T18:01:16.649Z,99264.72
2023-02-16T18:03:43.412Z,99277.13
2023-02-16T18:06:14.797Z,99282.44
2023-02-16T18:08:41.954Z,99279.81
2023-02-16T18:11:08.649Z,99273.69
2023-02-16T18:13:35.387Z,99273.88
2023-02-16T18:16:03.882Z,99280.97
2023-02-16T18:18:32.787Z,99284.53
2023-02-16T18:20:59.543Z,99276.72
2023-02-16T18:23:26.261Z,99276.75
2023-02-16T18:25:53.131Z,99268.84
2023-02-16T18:28:25.391Z,99269.72
2023-02-16T18:30:52.037Z,99275.00
2023-02-16T18:33:21.120Z,99276.81
2023-02-16T18:35:52.403Z,99278.59
2023-02-16T18:38:21.837Z,99271.47
2023-02-16T18:40:49.475Z,99282.06
2023-02-16T18:43:16.125Z,99281.22
2023-02-16T18:45:42.834Z,99288.25
2023-02-16T18:48:09.597Z,99284.72
2023-02-16T18:50:36.244Z,99284.84
2023-02-16T18:53:03.036Z,99281.31
2023-02-16T18:55:32.965Z,99279.53
2023-02-16T18:58:01.405Z,99277.81
2023-02-16T19:00:28.734Z,99273.41
2023-02-16T19:02:56.881Z,99276.09
2023-02-16T19:05:24.254Z,99282.28
2023-02-16T19:07:51.315Z,99277.00
2023-02-16T19:10:18.863Z,99283.28
2023-02-16T19:12:45.557Z,99277.09
2023-02-16T19:15:12.173Z,99277.09
2023-02-16T19:17:38.859Z,99278.88
2023-02-16T19:20:09.038Z,99277.09
2023-02-16T19:22:37.200Z,99270.09
2023-02-16T19:25:05.779Z,99272.78
2023-02-16T19:27:32.800Z,99270.16
2023-02-16T19:30:02.447Z,99271.94
2023-02-16T19:32:29.316Z,99281.66
2023-02-16T19:34:56.020Z,99283.44
2023-02-16T19:37:22.760Z,99278.97
2023-02-16T19:39:49.434Z,99282.50
2023-02-16T19:42:16.154Z,99277.22
2023-02-16T19:44:42.838Z,99284.28
2023-02-16T19:47:09.468Z,99293.13
2023-02-16T19:49:36.636Z,99289.56
2023-02-16T19:52:04.439Z,99295.69
2023-02-16T19:54:34.782Z,99289.59
2023-02-16T19:57:03.068Z,99294.84
2023-02-16T19:59:31.679Z,99293.94
2023-02-16T20:01:59.041Z,99293.94
2023-02-16T20:04:25.871Z,99294.78
2023-02-16T20:06:54.373Z,99294.78
2023-02-16T20:09:22.038Z,99296.59
2023-02-16T20:11:48.897Z,99296.66
2023-02-16T20:14:16.125Z,99288.75
2023-02-16T20:16:43.547Z,99293.16
2023-02-16T20:19:10.238Z,99290.56
2023-02-16T20:21:37.322Z,99287.91
2023-02-16T20:24:05.641Z,99281.72
2023-02-16T20:26:41.339Z,99279.97
2023-02-16T20:29:09.465Z,99274.69
2023-02-16T20:31:38.455Z,99277.31
2023-02-16T20:34:06.137Z,99264.09
2023-02-16T20:36:32.939Z,99266.75
2023-02-16T20:38:59.560Z,99275.50
2023-02-16T20:41:26.391Z,99276.34
2023-02-16T20:43:53.379Z,99276.38
2023-02-16T20:46:20.573Z,99273.75
2023-02-16T20:48:49.916Z,99272.00
2023-02-16T20:51:17.189Z,99272.03
2023-02-16T20:53:43.922Z,99276.34
2023-02-16T20:56:21.624Z,99263.91
2023-02-16T20:58:49.918Z,99269.00
2023-02-16T21:01:21.996Z,99268.22
2023-02-16T21:03:50.415Z,99260.91
2023-02-16T21:06:17.650Z,99262.09
2023-02-16T21:08:44.399Z,99259.38
2023-02-16T21:11:11.516Z,99259.28
2023-02-16T21:13:39.079Z,99261.13
2023-02-16T21:16:07.207Z,99259.22
2023-02-16T21:18:38.191Z,99266.38
2023-02-16T21:21:06.646Z,99261.75
2023-02-16T21:23:33.367Z,99263.44
2023-02-16T21:26:02.072Z,99262.63
2023-02-16T21:28:28.980Z,99254.63
2023-02-16T21:30:56.049Z,99256.25
2023-02-16T21:33:23.075Z,99254.66
2023-02-16T21:35:49.792Z,99253.09
2023-02-16T21:38:17.692Z,99253.03
2023-02-16T21:41:02.983Z,99253.97
2023-02-16T21:43:29.644Z,99252.78
2023-02-16T21:46:01.109Z,99245.84
2023-02-16T21:48:47.345Z,99253.56
2023-02-16T21:51:16.577Z,99251.72
2023-02-16T21:53:43.329Z,99247.53
2023-02-16T21:56:30.951Z,99246.84
2023-02-16T21:58:58.080Z,99242.13
2023-02-16T22:01:28.518Z,99240.97
2023-02-16T22:04:04.270Z,99242.53
2023-02-16T22:06:34.188Z,99240.63
2023-02-16T22:09:05.882Z,99246.00
2023-02-16T22:11:32.767Z,99248.53
2023-02-16T22:14:00.415Z,99243.19
2023-02-16T22:16:29.401Z,99250.38
2023-02-16T22:19:02.936Z,99247.09
2023-02-16T22:21:30.740Z,99242.47
2023-02-16T22:23:57.953Z,99241.72
2023-02-16T22:26:27.723Z,99238.16
2023-02-16T22:28:55.164Z,99237.31
2023-02-16T22:31:24.199Z,99249.63
2023-02-16T22:33:58.623Z,99241.81
2023-02-16T22:36:25.998Z,99250.72
2023-02-16T22:38:53.636Z,99233.66
2023-02-16T22:41:21.292Z,99238.06
2023-02-16T22:43:48.182Z,99246.94
2023-02-16T22:46:17.075Z,99241.63
2023-02-16T22:48:44.306Z,99241.63
2023-02-16T22:51:13.610Z,99241.69
2023-02-16T22:53:40.672Z,99236.38
2023-02-16T22:56:08.934Z,99238.69
2023-02-16T22:58:36.372Z,99230.03
2023-02-16T23:01:03.990Z,99230.03
2023-02-16T23:03:31.161Z,99228.91
2023-02-16T23:05:57.832Z,99233.50
2023-02-16T23:08:24.464Z,99233.63
2023-02-16T23:11:00.512Z,99231.63
2023-02-16T23:13:33.181Z,99227.97
2023-02-16T23:16:06.126Z,99240.38
2023-02-16T23:18:33.989Z,99236.84
2023-02-16T23:21:08.381Z,99245.72
2023-02-16T23:23:35.547Z,99241.44
2023-02-16T23:26:02.906Z,99244.78
2023-02-16T23:28:29.595Z,99243.22
2023-02-16T23:30:57.291Z,99235.97
2023-02-16T23:33:24.218Z,99238.47
2023-02-16T23:35:51.144Z,99246.56
2023-02-16T23:38:18.256Z,99249.28
2023-02-16T23:40:44.968Z,99250.13
2023-02-16T23:43:11.641Z,99248.28
2023-02-16T23:45:38.768Z,99254.63
2023-02-16T23:48:05.562Z,99252.94
2023-02-16T23:50:32.157Z,99256.47
2023-02-16T23:52:58.836Z,99252.81
2023-02-16T23:55:25.511Z,99262.56
2023-02-16T23:57:52.182Z,99256.94
